Archdale, North Carolina
Current Conditions -  °F | °C
As of 10:54 AM on Friday 21 Nov 2014 (Local Time) from KGSO Reporting Station
Scattered Clouds Scattered Clouds  
Wind Chill:   Ceiling: Unl
Heat Index:   Visibility: 10mi
Dew Point: -12°   Wind: 10mph
Humidity: 26%   Direction: 360°N
Pressure: 30.43"   Gusts: NA
Location:  35.9136°N, 79.9465°W
Report Text: KGSO 211554Z 36009KT 10SM SCT250 06/M12 A3043 RMK AO2 SLP307 T00611122
Loading
Personal Weather Stations






























Interactive Weather Map New forecast layout! Learn more

10-Day Weather Forecast

Advertisements
Track Severe Weather on mobile